sensor_id;sensor_type;location;lat;lon;timestamp;temperature;humidity
2062;DHT22;11070;51.336;12.340;2023-08-07T00:00:42;15.00;99.90
2062;DHT22;11070;51.336;12.340;2023-08-07T00:03:08;15.00;99.90
2062;DHT22;11070;51.336;12.340;2023-08-07T00:05:34;15.00;99.90
2062;DHT22;11070;51.336;12.340;2023-08-07T00:08:00;14.90;99.90
2062;DHT22;11070;51.336;12.340;2023-08-07T00:10:26;14.90;99.90
2062;DHT22;11070;51.336;12.340;2023-08-07T00:12:52;14.90;99.90
2062;DHT22;11070;51.336;12.340;2023-08-07T00:15:18;14.90;99.90
2062;DHT22;11070;51.336;12.340;2023-08-07T00:17:43;14.90;99.90
2062;DHT22;11070;51.336;12.340;2023-08-07T00:20:09;14.90;99.90
2062;DHT22;11070;51.336;12.340;2023-08-07T00:22:35;14.90;99.90
2062;DHT22;11070;51.336;12.340;2023-08-07T00:25:00;14.90;99.90
2062;DHT22;11070;51.336;12.340;2023-08-07T00:27:26;14.90;99.90
2062;DHT22;11070;51.336;12.340;2023-08-07T00:29:52;14.90;99.90
2062;DHT22;11070;51.336;12.340;2023-08-07T00:32:17;14.90;99.90
2062;DHT22;11070;51.336;12.340;2023-08-07T00:34:43;14.90;99.90
2062;DHT22;11070;51.336;12.340;2023-08-07T00:37:09;14.90;99.90
2062;DHT22;11070;51.336;12.340;2023-08-07T00:39:34;15.00;99.90
2062;DHT22;11070;51.336;12.340;2023-08-07T00:42:00;14.90;99.90
2062;DHT22;11070;51.336;12.340;2023-08-07T00:44:26;15.00;99.90
2062;DHT22;11070;51.336;12.340;2023-08-07T00:46:51;15.00;99.90
2062;DHT22;11070;51.336;12.340;2023-08-07T00:49:19;15.00;99.90
2062;DHT22;11070;51.336;12.340;2023-08-07T00:51:45;15.00;99.90
2062;DHT22;11070;51.336;12.340;2023-08-07T00:54:15;15.00;99.90
2062;DHT22;11070;51.336;12.340;2023-08-07T00:56:41;15.00;99.90
2062;DHT22;11070;51.336;12.340;2023-08-07T00:59:07;15.00;99.90
2062;DHT22;11070;51.336;12.340;2023-08-07T01:01:33;15.00;99.90
2062;DHT22;11070;51.336;12.340;2023-08-07T01:03:59;15.00;99.90
2062;DHT22;11070;51.336;12.340;2023-08-07T01:06:24;15.00;99.90
2062;DHT22;11070;51.336;12.340;2023-08-07T01:08:50;14.90;99.90
2062;DHT22;11070;51.336;12.340;2023-08-07T01:11:39;14.90;99.90
2062;DHT22;11070;51.336;12.340;2023-08-07T01:14:28;14.90;99.90
2062;DHT22;11070;51.336;12.340;2023-08-07T01:17:14;14.90;99.90
2062;DHT22;11070;51.336;12.340;2023-08-07T01:19:41;14.90;99.90
2062;DHT22;11070;51.336;12.340;2023-08-07T01:24:38;14.90;99.90
2062;DHT22;11070;51.336;12.340;2023-08-07T01:32:30;14.90;99.90
2062;DHT22;11070;51.336;12.340;2023-08-07T01:35:02;14.90;99.90
2062;DHT22;11070;51.336;12.340;2023-08-07T01:37:34;14.80;99.90
2062;DHT22;11070;51.336;12.340;2023-08-07T01:40:00;14.80;99.90
2062;DHT22;11070;51.336;12.340;2023-08-07T01:42:29;14.80;99.90
2062;DHT22;11070;51.336;12.340;2023-08-07T01:44:55;14.80;99.90
2062;DHT22;11070;51.336;12.340;2023-08-07T01:47:20;14.80;99.90
2062;DHT22;11070;51.336;12.340;2023-08-07T01:49:46;14.80;99.90
2062;DHT22;11070;51.336;12.340;2023-08-07T01:52:12;14.80;99.90
2062;DHT22;11070;51.336;12.340;2023-08-07T01:54:38;14.80;99.90
2062;DHT22;11070;51.336;12.340;2023-08-07T01:57:04;14.80;99.90
2062;DHT22;11070;51.336;12.340;2023-08-07T01:59:29;14.80;99.90
2062;DHT22;11070;51.336;12.340;2023-08-07T02:01:55;14.80;99.90
2062;DHT22;11070;51.336;12.340;2023-08-07T02:04:21;14.80;99.90
2062;DHT22;11070;51.336;12.340;2023-08-07T02:06:47;14.80;99.90
2062;DHT22;11070;51.336;12.340;2023-08-07T02:09:12;14.80;99.90
2062;DHT22;11070;51.336;12.340;2023-08-07T02:11:38;14.80;99.90
2062;DHT22;11070;51.336;12.340;2023-08-07T02:14:03;14.80;99.90
2062;DHT22;11070;51.336;12.340;2023-08-07T02:16:29;14.80;99.90
2062;DHT22;11070;51.336;12.340;2023-08-07T02:18:55;14.80;99.90
2062;DHT22;11070;51.336;12.340;2023-08-07T02:21:20;14.80;99.90
2062;DHT22;11070;51.336;12.340;2023-08-07T02:23:46;14.70;99.90
2062;DHT22;11070;51.336;12.340;2023-08-07T02:26:11;14.70;99.90
2062;DHT22;11070;51.336;12.340;2023-08-07T02:28:37;14.60;99.90
2062;DHT22;11070;51.336;12.340;2023-08-07T02:31:03;14.60;99.90
2062;DHT22;11070;51.336;12.340;2023-08-07T02:33:28;14.60;99.90
2062;DHT22;11070;51.336;12.340;2023-08-07T02:35:56;14.50;99.90
2062;DHT22;11070;51.336;12.340;2023-08-07T02:38:22;14.50;99.90
2062;DHT22;11070;51.336;12.340;2023-08-07T02:40:47;14.50;99.90
2062;DHT22;11070;51.336;12.340;2023-08-07T02:43:13;14.50;99.90
2062;DHT22;11070;51.336;12.340;2023-08-07T02:45:39;14.50;99.90
2062;DHT22;11070;51.336;12.340;2023-08-07T02:48:05;14.50;99.90
2062;DHT22;11070;51.336;12.340;2023-08-07T02:50:31;14.50;99.90
2062;DHT22;11070;51.336;12.340;2023-08-07T02:52:58;14.60;99.90
2062;DHT22;11070;51.336;12.340;2023-08-07T02:55:24;14.50;99.90
2062;DHT22;11070;51.336;12.340;2023-08-07T02:57:50;14.60;99.90
2062;DHT22;11070;51.336;12.340;2023-08-07T03:00:15;14.60;99.90
2062;DHT22;11070;51.336;12.340;2023-08-07T03:02:41;14.60;99.90
2062;DHT22;11070;51.336;12.340;2023-08-07T03:05:07;14.60;99.90
2062;DHT22;11070;51.336;12.340;2023-08-07T03:07:33;14.60;99.90
2062;DHT22;11070;51.336;12.340;2023-08-07T03:09:59;14.60;99.90
2062;DHT22;11070;51.336;12.340;2023-08-07T03:12:24;14.60;99.90
2062;DHT22;11070;51.336;12.340;2023-08-07T03:14:50;14.60;99.90
2062;DHT22;11070;51.336;12.340;2023-08-07T03:17:16;14.60;99.90
2062;DHT22;11070;51.336;12.340;2023-08-07T03:19:43;14.60;99.90
2062;DHT22;11070;51.336;12.340;2023-08-07T03:22:09;14.60;99.90
2062;DHT22;11070;51.336;12.340;2023-08-07T03:24:34;14.60;99.90
2062;DHT22;11070;51.336;12.340;2023-08-07T03:27:00;14.60;99.90
2062;DHT22;11070;51.336;12.340;2023-08-07T03:29:26;14.60;99.90
2062;DHT22;11070;51.336;12.340;2023-08-07T03:31:52;14.70;99.90
2062;DHT22;11070;51.336;12.340;2023-08-07T03:34:18;14.70;99.90
2062;DHT22;11070;51.336;12.340;2023-08-07T03:36:44;14.70;99.90
2062;DHT22;11070;51.336;12.340;2023-08-07T03:39:10;14.70;99.90
2062;DHT22;11070;51.336;12.340;2023-08-07T03:41:37;14.70;99.90
2062;DHT22;11070;51.336;12.340;2023-08-07T03:44:03;14.70;99.90
2062;DHT22;11070;51.336;12.340;2023-08-07T03:46:29;14.70;99.90
2062;DHT22;11070;51.336;12.340;2023-08-07T03:48:55;14.70;99.90
2062;DHT22;11070;51.336;12.340;2023-08-07T03:51:20;14.70;99.90
2062;DHT22;11070;51.336;12.340;2023-08-07T03:53:46;14.70;99.90
2062;DHT22;11070;51.336;12.340;2023-08-07T03:56:12;14.70;99.90
2062;DHT22;11070;51.336;12.340;2023-08-07T03:58:37;14.70;99.90
2062;DHT22;11070;51.336;12.340;2023-08-07T04:01:03;14.60;99.90
2062;DHT22;11070;51.336;12.340;2023-08-07T04:03:29;14.60;99.90
2062;DHT22;11070;51.336;12.340;2023-08-07T04:05:55;14.60;99.90
2062;DHT22;11070;51.336;12.340;2023-08-07T04:08:21;14.60;99.90
2062;DHT22;11070;51.336;12.340;2023-08-07T04:11:04;14.60;99.90
2062;DHT22;11070;51.336;12.340;2023-08-07T04:13:31;14.60;99.90
2062;DHT22;11070;51.336;12.340;2023-08-07T04:15:57;14.60;99.90
2062;DHT22;11070;51.336;12.340;2023-08-07T04:18:23;14.60;99.90
2062;DHT22;11070;51.336;12.340;2023-08-07T04:20:56;14.60;99.90
2062;DHT22;11070;51.336;12.340;2023-08-07T04:23:23;14.60;99.90
2062;DHT22;11070;51.336;12.340;2023-08-07T04:25:49;14.60;99.90
2062;DHT22;11070;51.336;12.340;2023-08-07T04:28:15;14.60;99.90
2062;DHT22;11070;51.336;12.340;2023-08-07T04:30:42;14.60;99.90
2062;DHT22;11070;51.336;12.340;2023-08-07T04:33:08;14.60;99.90
2062;DHT22;11070;51.336;12.340;2023-08-07T04:35:34;14.60;99.90
2062;DHT22;11070;51.336;12.340;2023-08-07T04:38:00;14.60;99.90
2062;DHT22;11070;51.336;12.340;2023-08-07T04:40:26;14.60;99.90
2062;DHT22;11070;51.336;12.340;2023-08-07T04:42:52;14.60;99.90
2062;DHT22;11070;51.336;12.340;2023-08-07T04:45:17;14.60;99.90
2062;DHT22;11070;51.336;12.340;2023-08-07T04:47:43;14.60;99.90
2062;DHT22;11070;51.336;12.340;2023-08-07T04:50:09;14.60;99.90
2062;DHT22;11070;51.336;12.340;2023-08-07T04:52:35;14.60;99.90
2062;DHT22;11070;51.336;12.340;2023-08-07T04:55:01;14.70;99.90
2062;DHT22;11070;51.336;12.340;2023-08-07T04:57:27;14.70;99.90
2062;DHT22;11070;51.336;12.340;2023-08-07T04:59:53;14.70;99.90
2062;DHT22;11070;51.336;12.340;2023-08-07T05:02:19;14.70;99.90
2062;DHT22;11070;51.336;12.340;2023-08-07T05:04:44;14.70;99.90
2062;DHT22;11070;51.336;12.340;2023-08-07T05:07:11;14.70;99.90
2062;DHT22;11070;51.336;12.340;2023-08-07T05:09:36;14.70;99.90
2062;DHT22;11070;51.336;12.340;2023-08-07T05:12:02;14.70;99.90
2062;DHT22;11070;51.336;12.340;2023-08-07T05:14:29;14.70;99.90
2062;DHT22;11070;51.336;12.340;2023-08-07T05:16:55;14.80;99.90
2062;DHT22;11070;51.336;12.340;2023-08-07T05:19:21;14.80;99.90
2062;DHT22;11070;51.336;12.340;2023-08-07T05:21:47;14.90;99.90
2062;DHT22;11070;51.336;12.340;2023-08-07T05:24:15;14.90;99.90
2062;DHT22;11070;51.336;12.340;2023-08-07T05:26:41;14.90;99.90
2062;DHT22;11070;51.336;12.340;2023-08-07T05:29:07;15.00;99.90
2062;DHT22;11070;51.336;12.340;2023-08-07T05:31:33;14.90;99.90
2062;DHT22;11070;51.336;12.340;2023-08-07T05:33:59;15.00;99.90
2062;DHT22;11070;51.336;12.340;2023-08-07T05:36:25;15.00;99.90
2062;DHT22;11070;51.336;12.340;2023-08-07T05:38:51;15.00;99.90
2062;DHT22;11070;51.336;12.340;2023-08-07T05:41:16;15.00;99.90
2062;DHT22;11070;51.336;12.340;2023-08-07T05:43:45;15.10;99.90
2062;DHT22;11070;51.336;12.340;2023-08-07T05:46:11;15.10;99.90
2062;DHT22;11070;51.336;12.340;2023-08-07T05:48:36;15.20;99.90
2062;DHT22;11070;51.336;12.340;2023-08-07T05:51:02;15.20;99.90
2062;DHT22;11070;51.336;12.340;2023-08-07T05:53:28;15.20;99.90
2062;DHT22;11070;51.336;12.340;2023-08-07T05:55:55;15.30;99.90
2062;DHT22;11070;51.336;12.340;2023-08-07T05:58:21;15.30;99.90
2062;DHT22;11070;51.336;12.340;2023-08-07T06:00:46;15.30;99.90
2062;DHT22;11070;51.336;12.340;2023-08-07T06:03:12;15.40;99.90
2062;DHT22;11070;51.336;12.340;2023-08-07T06:05:38;15.40;99.90
2062;DHT22;11070;51.336;12.340;2023-08-07T06:08:04;15.50;99.90
2062;DHT22;11070;51.336;12.340;2023-08-07T06:10:30;15.50;99.90
2062;DHT22;11070;51.336;12.340;2023-08-07T06:12:55;15.50;99.90
2062;DHT22;11070;51.336;12.340;2023-08-07T06:15:21;15.50;99.90
2062;DHT22;11070;51.336;12.340;2023-08-07T06:17:47;15.50;99.90
2062;DHT22;11070;51.336;12.340;2023-08-07T06:20:12;15.50;99.90
2062;DHT22;11070;51.336;12.340;2023-08-07T06:22:40;15.60;99.90
2062;DHT22;11070;51.336;12.340;2023-08-07T06:25:09;15.60;99.90
2062;DHT22;11070;51.336;12.340;2023-08-07T06:27:35;15.60;99.90
2062;DHT22;11070;51.336;12.340;2023-08-07T06:30:00;15.60;99.90
2062;DHT22;11070;51.336;12.340;2023-08-07T06:32:27;15.70;99.90
2062;DHT22;11070;51.336;12.340;2023-08-07T06:34:53;15.80;99.90
2062;DHT22;11070;51.336;12.340;2023-08-07T06:37:19;15.90;99.90
2062;DHT22;11070;51.336;12.340;2023-08-07T06:39:45;16.00;99.90
2062;DHT22;11070;51.336;12.340;2023-08-07T06:42:12;16.10;99.90
2062;DHT22;11070;51.336;12.340;2023-08-07T06:44:38;16.00;99.90
2062;DHT22;11070;51.336;12.340;2023-08-07T06:47:03;16.20;99.90
2062;DHT22;11070;51.336;12.340;2023-08-07T06:49:29;16.30;99.90
2062;DHT22;11070;51.336;12.340;2023-08-07T06:51:57;16.50;99.90
2062;DHT22;11070;51.336;12.340;2023-08-07T06:54:23;16.70;99.90
2062;DHT22;11070;51.336;12.340;2023-08-07T06:56:49;16.90;99.90
2062;DHT22;11070;51.336;12.340;2023-08-07T06:59:15;17.10;99.90
2062;DHT22;11070;51.336;12.340;2023-08-07T07:01:41;17.10;99.90
2062;DHT22;11070;51.336;12.340;2023-08-07T07:04:06;17.00;99.90
2062;DHT22;11070;51.336;12.340;2023-08-07T07:06:33;16.90;99.90
2062;DHT22;11070;51.336;12.340;2023-08-07T07:08:59;17.10;99.90
2062;DHT22;11070;51.336;12.340;2023-08-07T07:11:25;17.30;99.90
2062;DHT22;11070;51.336;12.340;2023-08-07T07:13:51;17.40;99.90
2062;DHT22;11070;51.336;12.340;2023-08-07T07:16:18;17.60;99.90
2062;DHT22;11070;51.336;12.340;2023-08-07T07:18:44;17.70;99.90
2062;DHT22;11070;51.336;12.340;2023-08-07T07:21:09;17.80;99.90
2062;DHT22;11070;51.336;12.340;2023-08-07T07:23:35;18.00;99.90
2062;DHT22;11070;51.336;12.340;2023-08-07T07:26:01;18.00;99.90
2062;DHT22;11070;51.336;12.340;2023-08-07T07:28:27;17.90;99.90
2062;DHT22;11070;51.336;12.340;2023-08-07T07:30:53;17.80;99.90
2062;DHT22;11070;51.336;12.340;2023-08-07T07:33:19;17.60;99.90
2062;DHT22;11070;51.336;12.340;2023-08-07T07:35:44;17.70;99.90
2062;DHT22;11070;51.336;12.340;2023-08-07T07:38:10;17.50;99.90
2062;DHT22;11070;51.336;12.340;2023-08-07T07:40:36;17.40;99.90
2062;DHT22;11070;51.336;12.340;2023-08-07T07:43:02;17.50;99.90
2062;DHT22;11070;51.336;12.340;2023-08-07T07:45:28;17.90;99.90
2062;DHT22;11070;51.336;12.340;2023-08-07T07:47:55;18.30;99.90
2062;DHT22;11070;51.336;12.340;2023-08-07T07:50:21;18.50;99.90
2062;DHT22;11070;51.336;12.340;2023-08-07T07:52:46;18.50;99.90
2062;DHT22;11070;51.336;12.340;2023-08-07T07:55:12;18.30;99.90
2062;DHT22;11070;51.336;12.340;2023-08-07T07:57:39;18.10;99.90
2062;DHT22;11070;51.336;12.340;2023-08-07T08:00:06;18.30;99.90
2062;DHT22;11070;51.336;12.340;2023-08-07T08:02:36;18.20;99.90
2062;DHT22;11070;51.336;12.340;2023-08-07T08:05:02;18.30;99.90
2062;DHT22;11070;51.336;12.340;2023-08-07T08:07:28;18.50;99.90
2062;DHT22;11070;51.336;12.340;2023-08-07T08:09:53;18.40;99.90
2062;DHT22;11070;51.336;12.340;2023-08-07T08:12:20;18.60;99.90
2062;DHT22;11070;51.336;12.340;2023-08-07T08:14:46;18.70;99.90
2062;DHT22;11070;51.336;12.340;2023-08-07T08:17:13;18.60;99.90
2062;DHT22;11070;51.336;12.340;2023-08-07T08:19:38;18.60;99.90
2062;DHT22;11070;51.336;12.340;2023-08-07T08:22:04;18.50;99.90
2062;DHT22;11070;51.336;12.340;2023-08-07T08:24:30;18.30;99.90
2062;DHT22;11070;51.336;12.340;2023-08-07T08:26:57;18.30;99.90
2062;DHT22;11070;51.336;12.340;2023-08-07T08:29:23;18.60;99.90
2062;DHT22;11070;51.336;12.340;2023-08-07T08:31:48;18.40;99.90
2062;DHT22;11070;51.336;12.340;2023-08-07T08:34:14;18.30;99.90
2062;DHT22;11070;51.336;12.340;2023-08-07T08:36:40;18.10;99.90
2062;DHT22;11070;51.336;12.340;2023-08-07T08:39:05;18.00;99.90
2062;DHT22;11070;51.336;12.340;2023-08-07T08:41:31;18.30;99.90
2062;DHT22;11070;51.336;12.340;2023-08-07T08:43:57;18.60;99.90
2062;DHT22;11070;51.336;12.340;2023-08-07T08:46:28;18.70;99.90
2062;DHT22;11070;51.336;12.340;2023-08-07T08:48:57;18.70;99.90
2062;DHT22;11070;51.336;12.340;2023-08-07T08:51:24;18.70;99.90
2062;DHT22;11070;51.336;12.340;2023-08-07T08:53:51;18.60;99.90
2062;DHT22;11070;51.336;12.340;2023-08-07T08:56:18;18.70;99.90
2062;DHT22;11070;51.336;12.340;2023-08-07T08:58:43;18.90;99.90
2062;DHT22;11070;51.336;12.340;2023-08-07T09:01:10;19.00;99.90
2062;DHT22;11070;51.336;12.340;2023-08-07T09:03:36;18.70;99.90
2062;DHT22;11070;51.336;12.340;2023-08-07T09:06:02;18.40;99.90
2062;DHT22;11070;51.336;12.340;2023-08-07T09:08:30;18.00;99.90
2062;DHT22;11070;51.336;12.340;2023-08-07T09:10:56;18.00;99.90
2062;DHT22;11070;51.336;12.340;2023-08-07T09:13:23;18.20;99.90
2062;DHT22;11070;51.336;12.340;2023-08-07T09:15:52;18.50;99.90
2062;DHT22;11070;51.336;12.340;2023-08-07T09:18:18;18.60;99.90
2062;DHT22;11070;51.336;12.340;2023-08-07T09:20:45;18.60;99.90
2062;DHT22;11070;51.336;12.340;2023-08-07T09:23:11;18.80;99.90
2062;DHT22;11070;51.336;12.340;2023-08-07T09:25:37;18.80;99.90
2062;DHT22;11070;51.336;12.340;2023-08-07T09:28:04;19.20;99.90
2062;DHT22;11070;51.336;12.340;2023-08-07T09:30:32;19.50;99.90
2062;DHT22;11070;51.336;12.340;2023-08-07T09:32:59;19.50;99.90
2062;DHT22;11070;51.336;12.340;2023-08-07T09:35:25;19.10;99.90
2062;DHT22;11070;51.336;12.340;2023-08-07T09:37:51;19.00;99.90
2062;DHT22;11070;51.336;12.340;2023-08-07T09:40:17;19.20;99.90
2062;DHT22;11070;51.336;12.340;2023-08-07T09:42:43;19.40;99.90
2062;DHT22;11070;51.336;12.340;2023-08-07T09:45:26;19.30;99.90
2062;DHT22;11070;51.336;12.340;2023-08-07T09:48:05;19.40;99.90
2062;DHT22;11070;51.336;12.340;2023-08-07T09:50:33;19.40;99.90
2062;DHT22;11070;51.336;12.340;2023-08-07T09:52:59;19.40;99.90
2062;DHT22;11070;51.336;12.340;2023-08-07T09:55:25;19.70;99.90
2062;DHT22;11070;51.336;12.340;2023-08-07T09:57:52;19.80;99.90
2062;DHT22;11070;51.336;12.340;2023-08-07T10:00:18;19.80;99.90
2062;DHT22;11070;51.336;12.340;2023-08-07T10:02:48;19.70;99.90
2062;DHT22;11070;51.336;12.340;2023-08-07T10:05:14;19.10;99.90
2062;DHT22;11070;51.336;12.340;2023-08-07T10:07:41;18.90;99.90
2062;DHT22;11070;51.336;12.340;2023-08-07T10:10:07;19.00;99.90
2062;DHT22;11070;51.336;12.340;2023-08-07T10:12:34;19.00;99.90
2062;DHT22;11070;51.336;12.340;2023-08-07T10:15:00;18.30;99.90
2062;DHT22;11070;51.336;12.340;2023-08-07T10:17:26;18.20;99.90
2062;DHT22;11070;51.336;12.340;2023-08-07T10:19:52;18.20;99.90
2062;DHT22;11070;51.336;12.340;2023-08-07T10:22:19;18.00;99.90
2062;DHT22;11070;51.336;12.340;2023-08-07T10:24:48;17.80;99.90
2062;DHT22;11070;51.336;12.340;2023-08-07T10:27:16;17.90;99.90
2062;DHT22;11070;51.336;12.340;2023-08-07T10:29:48;17.90;99.90
2062;DHT22;11070;51.336;12.340;2023-08-07T10:32:16;18.10;99.90
2062;DHT22;11070;51.336;12.340;2023-08-07T10:34:47;18.00;99.90
2062;DHT22;11070;51.336;12.340;2023-08-07T10:37:40;17.80;99.90
2062;DHT22;11070;51.336;12.340;2023-08-07T10:40:07;17.70;99.90
2062;DHT22;11070;51.336;12.340;2023-08-07T10:42:58;17.60;99.90
2062;DHT22;11070;51.336;12.340;2023-08-07T10:45:25;17.70;99.90
2062;DHT22;11070;51.336;12.340;2023-08-07T10:48:10;17.90;99.90
2062;DHT22;11070;51.336;12.340;2023-08-07T10:50:55;18.30;99.90
2062;DHT22;11070;51.336;12.340;2023-08-07T10:53:29;18.50;99.90
2062;DHT22;11070;51.336;12.340;2023-08-07T10:55:55;19.00;99.90
2062;DHT22;11070;51.336;12.340;2023-08-07T11:00:52;19.30;99.90
2062;DHT22;11070;51.336;12.340;2023-08-07T11:03:40;18.90;99.90
2062;DHT22;11070;51.336;12.340;2023-08-07T11:06:09;18.90;99.90
2062;DHT22;11070;51.336;12.340;2023-08-07T11:08:36;19.30;99.90
2062;DHT22;11070;51.336;12.340;2023-08-07T11:11:06;19.50;99.90
2062;DHT22;11070;51.336;12.340;2023-08-07T11:13:33;19.60;99.90
2062;DHT22;11070;51.336;12.340;2023-08-07T11:15:59;19.60;99.90
2062;DHT22;11070;51.336;12.340;2023-08-07T11:18:26;20.10;99.90
2062;DHT22;11070;51.336;12.340;2023-08-07T11:20:53;20.10;99.90
2062;DHT22;11070;51.336;12.340;2023-08-07T11:23:26;19.90;99.90
2062;DHT22;11070;51.336;12.340;2023-08-07T11:25:53;20.20;99.90
2062;DHT22;11070;51.336;12.340;2023-08-07T11:28:20;20.10;99.90
2062;DHT22;11070;51.336;12.340;2023-08-07T11:30:49;20.00;99.90
2062;DHT22;11070;51.336;12.340;2023-08-07T11:33:18;19.70;99.90
2062;DHT22;11070;51.336;12.340;2023-08-07T11:35:44;19.90;99.90
2062;DHT22;11070;51.336;12.340;2023-08-07T11:38:10;20.00;99.90
2062;DHT22;11070;51.336;12.340;2023-08-07T11:40:36;20.00;99.90
2062;DHT22;11070;51.336;12.340;2023-08-07T11:43:02;19.80;99.90
2062;DHT22;11070;51.336;12.340;2023-08-07T11:45:28;19.70;99.90
2062;DHT22;11070;51.336;12.340;2023-08-07T11:47:55;20.00;99.90
2062;DHT22;11070;51.336;12.340;2023-08-07T11:50:22;20.00;99.90
2062;DHT22;11070;51.336;12.340;2023-08-07T11:52:48;19.80;99.90
2062;DHT22;11070;51.336;12.340;2023-08-07T11:55:15;19.70;99.90
2062;DHT22;11070;51.336;12.340;2023-08-07T11:57:40;19.80;99.90
2062;DHT22;11070;51.336;12.340;2023-08-07T12:00:09;19.90;99.90
2062;DHT22;11070;51.336;12.340;2023-08-07T12:02:47;19.80;99.90
2062;DHT22;11070;51.336;12.340;2023-08-07T12:05:13;20.00;99.90
2062;DHT22;11070;51.336;12.340;2023-08-07T12:07:39;20.00;99.90
2062;DHT22;11070;51.336;12.340;2023-08-07T12:10:09;19.90;99.90
2062;DHT22;11070;51.336;12.340;2023-08-07T12:12:36;19.80;99.90
2062;DHT22;11070;51.336;12.340;2023-08-07T12:15:06;20.00;99.90
2062;DHT22;11070;51.336;12.340;2023-08-07T12:17:32;20.30;99.90
2062;DHT22;11070;51.336;12.340;2023-08-07T12:19:58;19.70;99.90
2062;DHT22;11070;51.336;12.340;2023-08-07T12:22:27;19.80;99.90
2062;DHT22;11070;51.336;12.340;2023-08-07T12:24:53;19.80;99.90
2062;DHT22;11070;51.336;12.340;2023-08-07T12:27:19;20.50;99.90
2062;DHT22;11070;51.336;12.340;2023-08-07T12:29:45;20.60;99.90
2062;DHT22;11070;51.336;12.340;2023-08-07T12:32:11;20.90;99.90
2062;DHT22;11070;51.336;12.340;2023-08-07T12:34:37;20.90;99.90
2062;DHT22;11070;51.336;12.340;2023-08-07T12:37:04;20.50;99.90
2062;DHT22;11070;51.336;12.340;2023-08-07T12:39:29;20.30;99.90
2062;DHT22;11070;51.336;12.340;2023-08-07T12:41:55;20.50;99.90
2062;DHT22;11070;51.336;12.340;2023-08-07T12:44:21;20.90;99.90
2062;DHT22;11070;51.336;12.340;2023-08-07T12:46:46;20.80;99.90
2062;DHT22;11070;51.336;12.340;2023-08-07T12:49:12;20.20;99.90
2062;DHT22;11070;51.336;12.340;2023-08-07T12:51:38;19.70;99.90
2062;DHT22;11070;51.336;12.340;2023-08-07T12:54:04;19.70;99.90
2062;DHT22;11070;51.336;12.340;2023-08-07T12:56:29;19.70;99.90
2062;DHT22;11070;51.336;12.340;2023-08-07T12:58:58;19.80;99.90
2062;DHT22;11070;51.336;12.340;2023-08-07T13:01:24;20.10;99.90
2062;DHT22;11070;51.336;12.340;2023-08-07T13:03:51;20.30;99.90
2062;DHT22;11070;51.336;12.340;2023-08-07T13:06:16;20.40;99.90
2062;DHT22;11070;51.336;12.340;2023-08-07T13:08:42;20.10;99.90
2062;DHT22;11070;51.336;12.340;2023-08-07T13:11:08;20.10;99.90
2062;DHT22;11070;51.336;12.340;2023-08-07T13:13:33;19.60;99.90
2062;DHT22;11070;51.336;12.340;2023-08-07T13:15:59;19.30;99.90
2062;DHT22;11070;51.336;12.340;2023-08-07T13:18:25;19.80;99.90
2062;DHT22;11070;51.336;12.340;2023-08-07T13:20:50;20.40;99.90
2062;DHT22;11070;51.336;12.340;2023-08-07T13:23:16;20.70;99.90
2062;DHT22;11070;51.336;12.340;2023-08-07T13:25:41;20.50;99.90
2062;DHT22;11070;51.336;12.340;2023-08-07T13:28:07;20.00;99.90
2062;DHT22;11070;51.336;12.340;2023-08-07T13:30:33;19.80;99.90
2062;DHT22;11070;51.336;12.340;2023-08-07T13:32:59;19.80;99.90
2062;DHT22;11070;51.336;12.340;2023-08-07T13:35:25;19.80;99.90
2062;DHT22;11070;51.336;12.340;2023-08-07T13:37:50;19.50;99.90
2062;DHT22;11070;51.336;12.340;2023-08-07T13:40:16;19.40;99.90
2062;DHT22;11070;51.336;12.340;2023-08-07T13:42:41;19.40;99.90
2062;DHT22;11070;51.336;12.340;2023-08-07T13:45:08;19.20;99.90
2062;DHT22;11070;51.336;12.340;2023-08-07T13:47:35;18.90;99.90
2062;DHT22;11070;51.336;12.340;2023-08-07T13:50:01;18.30;99.90
2062;DHT22;11070;51.336;12.340;2023-08-07T13:52:27;18.10;99.90
2062;DHT22;11070;51.336;12.340;2023-08-07T13:54:53;17.90;99.90
2062;DHT22;11070;51.336;12.340;2023-08-07T13:57:19;17.90;99.90
2062;DHT22;11070;51.336;12.340;2023-08-07T13:59:45;17.90;99.90
2062;DHT22;11070;51.336;12.340;2023-08-07T14:02:10;18.00;99.90
2062;DHT22;11070;51.336;12.340;2023-08-07T14:04:36;18.00;99.90
2062;DHT22;11070;51.336;12.340;2023-08-07T14:07:02;18.10;99.90
2062;DHT22;11070;51.336;12.340;2023-08-07T14:09:28;18.10;99.90
2062;DHT22;11070;51.336;12.340;2023-08-07T14:11:53;18.20;99.90
2062;DHT22;11070;51.336;12.340;2023-08-07T14:14:21;18.50;99.90
2062;DHT22;11070;51.336;12.340;2023-08-07T14:16:46;18.50;99.90
2062;DHT22;11070;51.336;12.340;2023-08-07T14:19:12;18.50;99.90
2062;DHT22;11070;51.336;12.340;2023-08-07T14:21:38;18.30;99.90
2062;DHT22;11070;51.336;12.340;2023-08-07T14:24:05;18.00;99.90
2062;DHT22;11070;51.336;12.340;2023-08-07T14:26:30;17.70;99.90
2062;DHT22;11070;51.336;12.340;2023-08-07T14:28:56;17.50;99.90
2062;DHT22;11070;51.336;12.340;2023-08-07T14:31:22;17.50;99.90
2062;DHT22;11070;51.336;12.340;2023-08-07T14:33:47;17.40;99.90
2062;DHT22;11070;51.336;12.340;2023-08-07T14:36:13;17.40;99.90
2062;DHT22;11070;51.336;12.340;2023-08-07T14:38:40;17.20;99.90
2062;DHT22;11070;51.336;12.340;2023-08-07T14:41:06;16.90;99.90
2062;DHT22;11070;51.336;12.340;2023-08-07T14:43:32;16.60;99.90
2062;DHT22;11070;51.336;12.340;2023-08-07T14:46:00;16.50;99.90
2062;DHT22;11070;51.336;12.340;2023-08-07T14:48:26;16.60;99.90
2062;DHT22;11070;51.336;12.340;2023-08-07T14:50:52;16.60;99.90
2062;DHT22;11070;51.336;12.340;2023-08-07T14:53:18;16.80;99.90
2062;DHT22;11070;51.336;12.340;2023-08-07T14:55:44;17.10;99.90
2062;DHT22;11070;51.336;12.340;2023-08-07T14:58:10;17.40;99.90
2062;DHT22;11070;51.336;12.340;2023-08-07T15:00:36;17.60;99.90
2062;DHT22;11070;51.336;12.340;2023-08-07T15:03:02;17.80;99.90
2062;DHT22;11070;51.336;12.340;2023-08-07T15:05:28;18.10;99.90
2062;DHT22;11070;51.336;12.340;2023-08-07T15:07:54;18.20;99.90
2062;DHT22;11070;51.336;12.340;2023-08-07T15:10:20;18.40;99.90
2062;DHT22;11070;51.336;12.340;2023-08-07T15:12:47;18.60;99.90
2062;DHT22;11070;51.336;12.340;2023-08-07T15:15:13;18.80;99.90
2062;DHT22;11070;51.336;12.340;2023-08-07T15:17:39;19.10;99.90
2062;DHT22;11070;51.336;12.340;2023-08-07T15:20:05;19.00;99.90
2062;DHT22;11070;51.336;12.340;2023-08-07T15:22:31;18.80;99.90
2062;DHT22;11070;51.336;12.340;2023-08-07T15:24:56;18.50;99.90
2062;DHT22;11070;51.336;12.340;2023-08-07T15:27:22;18.40;99.90
2062;DHT22;11070;51.336;12.340;2023-08-07T15:29:48;18.30;99.90
2062;DHT22;11070;51.336;12.340;2023-08-07T15:32:13;18.20;99.90
2062;DHT22;11070;51.336;12.340;2023-08-07T15:34:40;18.10;99.90
2062;DHT22;11070;51.336;12.340;2023-08-07T15:37:05;18.00;99.90